Airfield :
LOGIN :

Register | Disclaimer

   EN    FR    IT 

 










Legend :    VFR   Marginal VFR   IFR   Intensive IFR   Very Intensive IFR
Visi :
Ceiling :
>= 8 km
>= 3000ft
5 to 8 km
1000 to 3000 ft
1500m to 5 km
500 to 1000 ft
800 to 1500m
200 to 500 ft
< 800m
< 200 ft
Symbols :   Thunderstorms  Fog  Heavy snow  Heavy precipitations  Wind > 20 kt
SIGMETs :     Misc.  Thunderstorms  Icing  Turbulence  Mountain Waves  Volcanic Ashes






- Airport Elevation : 286 ft
- IATA code : FFD


EGVA - RAF Fairford

CURRENT METAR :
  • 201811Z AUTO 36006KT 9999 BKN014 OVC021 10/08 A2993 RMK AO2 RAE07DZB07E11 CIG 013 RWY09 SLP141 $

EXPIRED METARs :
  • 201801Z AUTO 36008KT 9999 -RA BKN014 OVC025 10/08 A2993 RMK AO2 CIG 014V025 CIG 013 RWY09 SLP141 $
  • 201745Z AUTO 35007KT 9999 -RA BKN024 OVC032 10/07 A2993 RMK AO2 RAB45 SLP141 $
  • 201736Z AUTO 35007KT 9999 BKN025 BKN033 OVC047 10/06 A2992 RMK AO2 CIG 025V033 BKN025 V SCT SLP138 $
  • 201721Z AUTO 35007KT 9999 SCT034 OVC047 10/07 A2992 RMK AO2 SLP138 $
  • 201656Z AUTO 34006KT 9999 OVC050 10/07 A2991 RMK AO2 SLP134 T01030066 $
  • 201556Z AUTO 36006KT 9999 FEW050 BKN060 11/06 A2990 RMK AO2 SLP130 T01100059 $

Expired Forecast.



MET'MAP, your aeronautical weather chart ! - Copyright ORBIFLY December 2007 - Disclaimer

ORBIFLY MET'MAP TEAM :

Programming & Development : Alexandra Zaïnal
Concept & Development : Baudouin d'Aumeries
Co-Development & Prog : Marc-Olivier Méhu
Technical & hardware support : Manuel Goepfert

Contact : metmap@orbifly.com




SOURCES & CREDITS :

   NOAA